createdAt,value
2022-08-26T00:02:12.797Z,75.54
2022-08-26T00:04:40.957Z,75.63
2022-08-26T00:07:09.084Z,75.68
2022-08-26T00:09:40.187Z,75.71
2022-08-26T00:12:12.486Z,75.83
2022-08-26T00:14:40.832Z,75.83
2022-08-26T00:17:10.001Z,75.94
2022-08-26T00:19:38.418Z,75.89
2022-08-26T00:22:06.529Z,75.84
2022-08-26T00:24:34.577Z,76.00
2022-08-26T00:27:02.976Z,76.17
2022-08-26T00:29:35.466Z,76.32
2022-08-26T00:32:06.414Z,76.34
2022-08-26T00:34:35.347Z,76.36
2022-08-26T00:37:03.879Z,76.52
2022-08-26T00:39:37.322Z,76.59
2022-08-26T00:42:05.626Z,76.53
2022-08-26T00:44:34.012Z,76.56
2022-08-26T00:47:06.146Z,76.59
2022-08-26T00:49:39.787Z,76.56
2022-08-26T00:52:13.184Z,76.66
2022-08-26T00:54:49.221Z,76.67
2022-08-26T00:57:19.491Z,76.85
2022-08-26T00:59:52.081Z,76.87
2022-08-26T01:02:21.664Z,76.90
2022-08-26T01:04:54.416Z,76.94
2022-08-26T01:07:27.586Z,77.10
2022-08-26T01:10:06.828Z,77.14
2022-08-26T01:12:41.329Z,77.08
2022-08-26T01:15:15.547Z,77.28
2022-08-26T01:17:43.964Z,77.38
2022-08-26T01:20:27.663Z,77.44
2022-08-26T01:23:01.612Z,77.55
2022-08-26T01:25:35.152Z,77.60
2022-08-26T01:28:07.727Z,77.90
2022-08-26T01:30:38.512Z,77.62
2022-08-26T01:33:16.092Z,77.76
2022-08-26T01:35:45.198Z,78.05
2022-08-26T01:38:13.850Z,78.06
2022-08-26T01:40:44.277Z,78.14
2022-08-26T01:43:20.150Z,77.92
2022-08-26T01:45:52.037Z,78.07
2022-08-26T01:48:25.543Z,78.03
2022-08-26T01:50:54.816Z,78.10
2022-08-26T01:53:23.630Z,78.17
2022-08-26T01:55:55.508Z,78.29
2022-08-26T01:58:45.665Z,78.29
2022-08-26T02:01:14.472Z,78.34
2022-08-26T02:04:17.958Z,78.60
2022-08-26T02:06:46.870Z,78.71
2022-08-26T02:09:16.735Z,78.41
2022-08-26T02:11:45.797Z,78.59
2022-08-26T02:14:19.276Z,78.55
2022-08-26T02:16:50.560Z,78.59
2022-08-26T02:19:23.509Z,78.64
2022-08-26T02:21:53.170Z,78.64
2022-08-26T02:24:27.543Z,78.67
2022-08-26T02:26:58.275Z,78.64
2022-08-26T02:29:38.605Z,78.69
2022-08-26T02:32:11.329Z,78.62
2022-08-26T02:34:40.258Z,78.62
2022-08-26T02:37:11.204Z,78.69
2022-08-26T02:39:41.103Z,78.83
2022-08-26T02:42:10.240Z,78.93
2022-08-26T02:44:38.381Z,78.95
2022-08-26T02:47:07.332Z,78.90
2022-08-26T02:49:37.469Z,79.04
2022-08-26T02:52:05.765Z,79.07
2022-08-26T02:54:33.881Z,79.14
2022-08-26T02:57:03.151Z,78.95
2022-08-26T02:59:32.139Z,79.23
2022-08-26T03:02:00.662Z,79.35
2022-08-26T03:04:30.538Z,79.44
2022-08-26T03:07:01.749Z,79.51
2022-08-26T03:09:29.731Z,79.48
2022-08-26T03:11:58.641Z,79.47
2022-08-26T03:14:26.616Z,79.52
2022-08-26T03:16:54.817Z,79.58
2022-08-26T03:19:25.292Z,79.64
2022-08-26T03:21:57.946Z,79.68
2022-08-26T03:24:26.892Z,79.73
2022-08-26T03:26:54.879Z,79.82
2022-08-26T03:29:42.643Z,79.84
2022-08-26T03:32:11.605Z,79.89
2022-08-26T03:34:39.616Z,80.02
2022-08-26T03:37:07.879Z,79.89
2022-08-26T03:39:37.038Z,79.97
2022-08-26T03:42:06.410Z,80.13
2022-08-26T03:44:35.211Z,80.12
2022-08-26T03:47:12.853Z,80.01
2022-08-26T03:49:42.041Z,79.99
2022-08-26T03:52:10.621Z,80.06
2022-08-26T03:54:38.846Z,80.06
2022-08-26T03:57:06.745Z,80.29
2022-08-26T03:59:34.796Z,80.65
2022-08-26T04:02:03.065Z,80.51
2022-08-26T04:04:37.409Z,80.63
2022-08-26T04:07:05.670Z,80.77
2022-08-26T04:09:35.114Z,80.91
2022-08-26T04:12:05.000Z,81.04
2022-08-26T04:14:35.534Z,81.03
2022-08-26T04:17:06.339Z,81.04
2022-08-26T04:19:35.963Z,81.00
2022-08-26T04:22:03.970Z,81.10
2022-08-26T04:24:32.303Z,81.09
2022-08-26T04:27:02.535Z,81.23
2022-08-26T04:29:30.529Z,81.45
2022-08-26T04:31:58.857Z,81.88
2022-08-26T04:34:29.088Z,81.93
2022-08-26T04:36:59.171Z,81.93
2022-08-26T04:39:27.774Z,82.23
2022-08-26T04:41:57.860Z,82.33
2022-08-26T04:44:29.500Z,82.28
2022-08-26T04:46:58.825Z,82.57
2022-08-26T04:49:27.665Z,82.67
2022-08-26T04:51:55.930Z,82.74
2022-08-26T04:54:23.961Z,82.78
2022-08-26T04:56:53.297Z,82.69
2022-08-26T04:59:21.287Z,82.60
2022-08-26T05:01:52.396Z,82.81
2022-08-26T05:04:28.417Z,82.85
2022-08-26T05:07:02.668Z,82.96
2022-08-26T05:09:31.082Z,83.06
2022-08-26T05:11:58.919Z,82.81
2022-08-26T05:14:27.061Z,82.27
2022-08-26T05:16:56.157Z,82.17
2022-08-26T05:19:24.874Z,82.13
2022-08-26T05:21:55.976Z,81.86
2022-08-26T05:24:23.903Z,81.91
2022-08-26T05:26:51.806Z,82.18
2022-08-26T05:29:19.811Z,82.34
2022-08-26T05:31:51.470Z,82.09
2022-08-26T05:34:20.999Z,82.44
2022-08-26T05:36:49.130Z,82.27
2022-08-26T05:39:17.647Z,82.01
2022-08-26T05:41:45.652Z,81.56
2022-08-26T05:44:16.417Z,81.51
2022-08-26T05:46:46.218Z,81.47
2022-08-26T05:49:16.004Z,81.08
2022-08-26T05:51:47.543Z,80.87
2022-08-26T05:54:21.758Z,81.16
2022-08-26T05:56:53.520Z,80.67
2022-08-26T05:59:24.514Z,80.00
2022-08-26T06:01:55.189Z,79.70
2022-08-26T06:04:27.508Z,79.45
2022-08-26T06:06:56.335Z,79.07
2022-08-26T06:09:27.682Z,78.67
2022-08-26T06:11:56.603Z,78.61
2022-08-26T06:14:26.182Z,78.48
2022-08-26T06:16:55.231Z,77.66
2022-08-26T06:19:23.657Z,77.35
2022-08-26T06:21:54.669Z,77.31
2022-08-26T06:24:42.364Z,76.77
2022-08-26T06:27:15.320Z,76.21
2022-08-26T06:29:43.813Z,76.42
2022-08-26T06:32:12.611Z,76.43
2022-08-26T06:34:40.795Z,76.55
2022-08-26T06:37:09.841Z,75.61
2022-08-26T06:39:40.157Z,75.40
2022-08-26T06:42:09.608Z,75.05
2022-08-26T06:44:44.667Z,73.68
2022-08-26T06:47:13.071Z,71.81
2022-08-26T06:49:41.914Z,71.56
2022-08-26T06:52:12.612Z,71.50
2022-08-26T06:54:44.328Z,71.09
2022-08-26T06:57:12.730Z,71.37
2022-08-26T06:59:42.691Z,71.06
2022-08-26T07:02:13.380Z,70.66
2022-08-26T07:04:42.227Z,67.72
2022-08-26T07:07:15.027Z,68.08
2022-08-26T07:09:43.083Z,68.15
2022-08-26T07:12:11.047Z,68.57
2022-08-26T07:14:40.023Z,68.51
2022-08-26T07:17:14.272Z,68.80
2022-08-26T07:19:42.710Z,68.58
2022-08-26T07:22:11.056Z,68.58
2022-08-26T07:24:43.074Z,68.25
2022-08-26T07:27:15.486Z,67.57
2022-08-26T07:29:45.081Z,68.01
2022-08-26T07:32:15.753Z,67.74
2022-08-26T07:34:44.932Z,66.67
2022-08-26T07:37:12.968Z,65.96
2022-08-26T07:39:43.603Z,64.93
2022-08-26T07:42:14.278Z,64.54
2022-08-26T07:44:43.213Z,63.83
2022-08-26T07:47:25.126Z,63.58
2022-08-26T07:49:57.760Z,64.75
2022-08-26T07:52:28.078Z,61.33
2022-08-26T07:54:58.453Z,61.29
2022-08-26T07:57:27.747Z,61.51
2022-08-26T07:59:56.696Z,61.50
2022-08-26T08:02:26.547Z,60.58
2022-08-26T08:04:56.904Z,60.46
2022-08-26T08:07:44.444Z,59.79
2022-08-26T08:10:19.295Z,59.76
2022-08-26T08:12:50.429Z,59.46
2022-08-26T08:15:22.401Z,58.97
2022-08-26T08:17:51.657Z,58.15
2022-08-26T08:20:20.473Z,56.25
2022-08-26T08:22:49.367Z,57.10
2022-08-26T08:25:17.564Z,55.71
2022-08-26T08:27:45.709Z,55.26
2022-08-26T08:30:15.327Z,54.74
2022-08-26T08:32:56.295Z,53.64
2022-08-26T08:35:26.526Z,53.30
2022-08-26T08:37:55.823Z,52.38
2022-08-26T08:40:26.876Z,52.41
2022-08-26T08:43:01.936Z,52.93
2022-08-26T08:45:36.751Z,52.56
2022-08-26T08:48:20.138Z,52.67
2022-08-26T08:50:54.281Z,52.24
2022-08-26T08:53:34.328Z,52.31
2022-08-26T08:56:15.018Z,51.50
2022-08-26T08:59:04.819Z,48.76
2022-08-26T09:01:37.548Z,50.18
2022-08-26T09:04:19.845Z,48.98
2022-08-26T09:06:53.077Z,47.62
2022-08-26T09:09:38.757Z,47.86
2022-08-26T09:12:13.149Z,47.47
2022-08-26T09:14:43.164Z,47.44
2022-08-26T09:17:49.435Z,47.92
2022-08-26T09:20:29.476Z,47.28
2022-08-26T09:22:57.706Z,47.92
2022-08-26T09:25:25.783Z,47.13
2022-08-26T09:27:56.112Z,46.10
2022-08-26T09:30:33.501Z,45.50
2022-08-26T09:33:10.462Z,45.94
2022-08-26T09:35:45.669Z,46.27
2022-08-26T09:38:28.042Z,46.71
2022-08-26T09:41:00.117Z,44.96
2022-08-26T09:43:29.201Z,43.82
2022-08-26T09:46:23.876Z,42.95
2022-08-26T09:48:53.173Z,43.49
2022-08-26T09:51:23.364Z,44.24
2022-08-26T09:53:57.957Z,42.68
2022-08-26T09:56:38.743Z,42.15
2022-08-26T09:59:11.580Z,43.34
2022-08-26T10:01:43.864Z,42.80
2022-08-26T10:04:26.708Z,43.04
2022-08-26T10:07:02.534Z,42.94
2022-08-26T10:09:36.262Z,42.17
2022-08-26T10:12:13.807Z,42.00
2022-08-26T10:14:50.317Z,40.40
2022-08-26T10:17:22.645Z,41.56
2022-08-26T10:20:02.854Z,41.32
2022-08-26T10:22:42.323Z,42.01
2022-08-26T10:25:16.287Z,41.25
2022-08-26T10:28:11.252Z,41.14
2022-08-26T10:30:58.888Z,40.58
2022-08-26T10:33:27.200Z,39.72
2022-08-26T10:36:03.975Z,40.21
2022-08-26T10:38:40.403Z,39.63
2022-08-26T10:41:17.068Z,39.42
2022-08-26T10:43:56.697Z,38.46
2022-08-26T10:46:33.195Z,39.56
2022-08-26T10:49:08.906Z,39.68
2022-08-26T10:51:45.679Z,39.91
2022-08-26T10:54:26.222Z,40.57
2022-08-26T10:57:09.672Z,41.27
2022-08-26T10:59:43.872Z,40.82
2022-08-26T11:02:24.700Z,40.20
2022-08-26T11:05:03.865Z,41.23
2022-08-26T11:07:46.379Z,41.87
2022-08-26T11:10:17.368Z,42.63
2022-08-26T11:12:49.296Z,42.70
2022-08-26T11:15:24.482Z,42.95
2022-08-26T11:17:52.884Z,42.71
2022-08-26T11:20:39.179Z,44.66
2022-08-26T11:23:13.762Z,43.50
2022-08-26T11:26:09.218Z,42.64
2022-08-26T11:28:49.592Z,42.81
2022-08-26T11:31:27.059Z,41.74
2022-08-26T11:34:03.683Z,39.78
2022-08-26T11:36:37.760Z,39.30
2022-08-26T11:39:18.028Z,40.18
2022-08-26T11:41:54.539Z,39.27
2022-08-26T11:44:25.235Z,39.10
2022-08-26T11:47:00.112Z,39.22
2022-08-26T11:49:33.440Z,38.57
2022-08-26T11:52:27.871Z,38.40
2022-08-26T11:55:05.575Z,38.22
2022-08-26T11:57:36.211Z,37.63
2022-08-26T12:00:12.494Z,38.51
2022-08-26T12:02:42.517Z,38.97
2022-08-26T12:05:17.340Z,38.35
2022-08-26T12:07:50.994Z,37.60
2022-08-26T12:10:33.896Z,37.55
2022-08-26T12:13:04.137Z,37.76
2022-08-26T12:15:35.076Z,37.10
2022-08-26T12:18:29.166Z,36.41
2022-08-26T12:21:12.548Z,36.38
2022-08-26T12:23:46.828Z,36.43
2022-08-26T12:26:28.781Z,35.37
2022-08-26T12:28:59.482Z,35.26
2022-08-26T12:31:34.096Z,34.79
2022-08-26T12:34:06.095Z,34.90
2022-08-26T12:36:56.709Z,35.36
2022-08-26T12:39:29.815Z,35.48
2022-08-26T12:43:09.890Z,35.76
2022-08-26T12:45:57.194Z,35.67
2022-08-26T12:48:29.792Z,35.94
2022-08-26T12:50:58.864Z,35.42
2022-08-26T12:53:32.435Z,34.94
2022-08-26T12:56:06.417Z,35.54
2022-08-26T12:58:38.237Z,36.17
2022-08-26T13:01:06.927Z,36.03
2022-08-26T13:03:34.926Z,36.07
2022-08-26T13:06:15.867Z,36.47
2022-08-26T13:08:47.602Z,36.20
2022-08-26T13:11:34.886Z,36.43
2022-08-26T13:14:07.479Z,37.31
2022-08-26T13:16:37.487Z,37.03
2022-08-26T13:19:10.380Z,36.50
2022-08-26T13:21:48.441Z,36.70
2022-08-26T13:24:36.728Z,36.10
2022-08-26T13:27:07.681Z,35.64
2022-08-26T13:29:35.852Z,36.05
2022-08-26T13:32:05.597Z,36.10
2022-08-26T13:34:34.506Z,35.70
2022-08-26T13:37:02.435Z,36.52
2022-08-26T13:39:30.580Z,35.89
2022-08-26T13:41:59.170Z,35.78
2022-08-26T13:44:27.570Z,35.52
2022-08-26T13:46:55.525Z,35.40
2022-08-26T13:49:23.561Z,34.89
2022-08-26T13:51:51.543Z,35.69
2022-08-26T13:54:20.059Z,35.49
2022-08-26T13:56:48.170Z,36.09
2022-08-26T13:59:16.366Z,35.78
2022-08-26T14:01:44.253Z,35.87
2022-08-26T14:04:12.547Z,36.33
2022-08-26T14:06:40.728Z,35.97
2022-08-26T14:09:08.662Z,35.78
2022-08-26T14:11:50.825Z,36.02
2022-08-26T14:14:22.636Z,36.55
2022-08-26T14:16:59.651Z,36.61
2022-08-26T14:19:30.746Z,35.86
2022-08-26T14:22:01.101Z,36.19
2022-08-26T14:24:30.257Z,35.77
2022-08-26T14:26:58.727Z,35.80
2022-08-26T14:29:27.093Z,35.55
2022-08-26T14:31:57.951Z,36.17
2022-08-26T14:34:26.030Z,35.75
2022-08-26T14:36:54.313Z,35.60
2022-08-26T14:39:22.255Z,35.98
2022-08-26T14:41:55.305Z,35.87
2022-08-26T14:44:31.454Z,35.48
2022-08-26T14:47:01.641Z,35.43
2022-08-26T14:49:31.301Z,35.65
2022-08-26T14:51:59.343Z,35.52
2022-08-26T14:54:29.108Z,35.40
2022-08-26T14:57:01.514Z,35.68
2022-08-26T14:59:33.052Z,35.35
2022-08-26T15:02:02.187Z,34.89
2022-08-26T15:04:30.629Z,35.49
2022-08-26T15:07:00.306Z,35.42
2022-08-26T15:09:30.117Z,35.72
2022-08-26T15:11:58.137Z,36.26
2022-08-26T15:14:29.740Z,36.02
2022-08-26T15:17:00.692Z,35.65
2022-08-26T15:19:28.848Z,34.69
2022-08-26T15:21:56.838Z,35.22
2022-08-26T15:24:26.429Z,34.88
2022-08-26T15:26:54.720Z,34.93
2022-08-26T15:29:24.330Z,34.61
2022-08-26T15:31:56.818Z,34.88
2022-08-26T15:34:25.796Z,34.92
2022-08-26T15:36:54.197Z,34.86
2022-08-26T15:39:22.107Z,34.79
2022-08-26T15:41:50.563Z,34.68
2022-08-26T15:44:19.289Z,35.10
2022-08-26T15:46:49.091Z,34.85
2022-08-26T15:49:18.853Z,34.81
2022-08-26T15:51:50.476Z,34.70
2022-08-26T15:54:21.732Z,34.47
2022-08-26T15:56:52.228Z,34.81
2022-08-26T15:59:22.189Z,34.77
2022-08-26T16:01:51.806Z,34.76
2022-08-26T16:04:20.416Z,34.95
2022-08-26T16:06:50.445Z,35.35
2022-08-26T16:09:20.319Z,35.46
2022-08-26T16:11:51.086Z,35.77
2022-08-26T16:14:19.132Z,35.72
2022-08-26T16:16:47.344Z,35.72
2022-08-26T16:19:15.951Z,36.35
2022-08-26T16:21:44.851Z,36.30
2022-08-26T16:24:13.502Z,36.58
2022-08-26T16:26:42.849Z,36.86
2022-08-26T16:29:14.622Z,37.23
2022-08-26T16:31:42.590Z,36.88
2022-08-26T16:34:13.684Z,36.99
2022-08-26T16:36:44.449Z,37.35
2022-08-26T16:39:12.883Z,37.66
2022-08-26T16:41:41.000Z,37.46
2022-08-26T16:44:09.093Z,38.14
2022-08-26T16:46:37.198Z,38.06
2022-08-26T16:49:05.635Z,38.31
2022-08-26T16:51:38.956Z,39.19
2022-08-26T16:54:08.555Z,40.70
2022-08-26T16:56:37.341Z,39.98
2022-08-26T16:59:07.244Z,40.66
2022-08-26T17:01:35.241Z,41.77
2022-08-26T17:04:03.534Z,43.22
2022-08-26T17:06:31.825Z,42.30
2022-08-26T17:08:59.925Z,45.05
2022-08-26T17:11:27.937Z,45.80
2022-08-26T17:13:57.150Z,46.50
2022-08-26T17:16:27.038Z,47.14
2022-08-26T17:18:57.453Z,46.37
2022-08-26T17:21:27.252Z,47.64
2022-08-26T17:23:56.798Z,47.68
2022-08-26T17:26:25.068Z,48.50
2022-08-26T17:28:53.607Z,48.73
2022-08-26T17:31:23.617Z,49.12
2022-08-26T17:33:53.553Z,49.53
2022-08-26T17:36:27.464Z,50.01
2022-08-26T17:39:01.072Z,50.31
2022-08-26T17:41:30.251Z,50.80
2022-08-26T17:43:58.346Z,51.08
2022-08-26T17:46:27.509Z,51.70
2022-08-26T17:48:55.654Z,52.18
2022-08-26T17:51:24.622Z,52.63
2022-08-26T17:53:53.655Z,52.70
2022-08-26T17:56:27.154Z,52.73
2022-08-26T17:58:58.080Z,53.01
2022-08-26T18:01:31.746Z,53.51
2022-08-26T18:04:01.007Z,53.31
2022-08-26T18:06:30.811Z,53.34
2022-08-26T18:08:59.917Z,53.56
2022-08-26T18:11:29.467Z,54.36
2022-08-26T18:13:57.494Z,53.94
2022-08-26T18:16:25.573Z,54.07
2022-08-26T18:18:54.717Z,54.25
2022-08-26T18:21:25.370Z,54.34
2022-08-26T18:23:54.461Z,54.76
2022-08-26T18:26:28.783Z,55.53
2022-08-26T18:28:57.591Z,55.68
2022-08-26T18:31:26.896Z,56.01
2022-08-26T18:33:55.937Z,56.40
2022-08-26T18:36:30.270Z,56.66
2022-08-26T18:38:59.115Z,57.28
2022-08-26T18:41:29.437Z,57.69
2022-08-26T18:43:58.199Z,57.93
2022-08-26T18:46:28.624Z,58.02
2022-08-26T18:48:57.191Z,58.21
2022-08-26T18:51:29.788Z,58.42
2022-08-26T18:53:59.102Z,58.91
2022-08-26T18:56:27.662Z,58.80
2022-08-26T18:58:55.927Z,58.84
2022-08-26T19:01:27.348Z,59.13
2022-08-26T19:03:59.679Z,59.15
2022-08-26T19:06:31.652Z,59.73
2022-08-26T19:09:00.084Z,60.26
2022-08-26T19:11:31.624Z,60.67
2022-08-26T19:14:02.575Z,60.42
2022-08-26T19:16:31.500Z,60.72
2022-08-26T19:19:01.095Z,61.09
2022-08-26T19:21:31.820Z,61.48
2022-08-26T19:24:02.714Z,61.71
2022-08-26T19:26:32.217Z,61.77
2022-08-26T19:29:00.451Z,61.80
2022-08-26T19:31:28.805Z,62.03
2022-08-26T19:33:58.231Z,62.05
2022-08-26T19:36:28.084Z,62.05
2022-08-26T19:38:57.149Z,62.03
2022-08-26T19:41:37.522Z,62.54
2022-08-26T19:44:10.061Z,62.59
2022-08-26T19:49:12.078Z,63.03
2022-08-26T19:51:40.211Z,62.89
2022-08-26T19:54:08.907Z,63.02
2022-08-26T19:56:37.345Z,62.84
2022-08-26T19:59:05.564Z,62.93
2022-08-26T20:01:33.400Z,62.76
2022-08-26T20:04:01.386Z,62.91
2022-08-26T20:06:29.356Z,63.13
2022-08-26T20:08:57.759Z,63.06
2022-08-26T20:11:25.707Z,63.27
2022-08-26T20:13:54.099Z,63.28
2022-08-26T20:16:21.990Z,63.20
2022-08-26T20:19:08.766Z,63.22
2022-08-26T20:21:39.437Z,63.22
2022-08-26T20:24:16.841Z,63.45
2022-08-26T20:26:45.353Z,63.61
2022-08-26T20:29:15.701Z,63.90
2022-08-26T20:31:45.031Z,63.97
2022-08-26T20:34:15.859Z,64.07
2022-08-26T20:36:45.660Z,64.16
2022-08-26T20:39:14.771Z,64.28
2022-08-26T20:41:44.101Z,64.39
2022-08-26T20:44:13.752Z,64.46
2022-08-26T20:46:41.677Z,64.63
2022-08-26T20:49:10.122Z,64.65
2022-08-26T20:51:38.815Z,64.74
2022-08-26T20:54:08.412Z,65.27
2022-08-26T20:56:36.625Z,65.16
2022-08-26T20:59:09.323Z,65.16
2022-08-26T21:01:42.131Z,65.06
2022-08-26T21:04:20.918Z,65.28
2022-08-26T21:06:52.421Z,65.62
2022-08-26T21:09:25.657Z,65.77
2022-08-26T21:11:54.972Z,66.06
2022-08-26T21:14:25.834Z,66.42
2022-08-26T21:16:54.672Z,66.57
2022-08-26T21:19:23.556Z,67.00
2022-08-26T21:21:51.949Z,67.17
2022-08-26T21:24:20.475Z,67.49
2022-08-26T21:26:48.570Z,67.65
2022-08-26T21:29:17.061Z,67.88
2022-08-26T21:31:46.678Z,68.06
2022-08-26T21:34:18.557Z,68.19
2022-08-26T21:36:48.111Z,68.30
2022-08-26T21:39:17.193Z,67.97
2022-08-26T21:41:47.324Z,68.02
2022-08-26T21:44:17.034Z,68.31
2022-08-26T21:46:46.361Z,68.26
2022-08-26T21:49:16.196Z,68.48
2022-08-26T21:51:47.837Z,68.59
2022-08-26T21:54:16.795Z,68.61
2022-08-26T21:56:47.271Z,68.43
2022-08-26T21:59:18.270Z,68.80
2022-08-26T22:01:47.510Z,68.97
2022-08-26T22:04:17.406Z,68.82
2022-08-26T22:06:48.860Z,68.80
2022-08-26T22:09:20.160Z,68.87
2022-08-26T22:11:49.179Z,69.13
2022-08-26T22:14:26.340Z,69.29
2022-08-26T22:16:58.356Z,69.26
2022-08-26T22:19:26.434Z,69.56
2022-08-26T22:21:55.481Z,69.67
2022-08-26T22:24:27.263Z,69.68
2022-08-26T22:26:56.132Z,69.53
2022-08-26T22:29:25.421Z,69.75
2022-08-26T22:31:53.746Z,69.90
2022-08-26T22:34:23.377Z,69.88
2022-08-26T22:36:51.751Z,70.15
2022-08-26T22:39:24.489Z,70.13
2022-08-26T22:41:55.048Z,70.34
2022-08-26T22:44:23.424Z,70.39
2022-08-26T22:46:54.437Z,70.42
2022-08-26T22:49:23.612Z,70.52
2022-08-26T22:51:51.791Z,70.87
2022-08-26T22:54:20.290Z,71.13
2022-08-26T22:56:48.825Z,70.92
2022-08-26T22:59:17.000Z,71.09
2022-08-26T23:01:46.997Z,71.18
2022-08-26T23:04:15.400Z,71.18
2022-08-26T23:06:47.536Z,71.27
2022-08-26T23:09:18.830Z,71.43
2022-08-26T23:11:48.757Z,71.56
2022-08-26T23:14:18.779Z,71.74
2022-08-26T23:16:48.367Z,71.85
2022-08-26T23:19:19.550Z,71.96
2022-08-26T23:21:48.339Z,72.09
2022-08-26T23:24:17.661Z,72.15
2022-08-26T23:26:46.263Z,72.24
2022-08-26T23:29:15.746Z,72.39
2022-08-26T23:31:44.253Z,72.53
2022-08-26T23:34:31.290Z,72.70
2022-08-26T23:37:01.017Z,72.63
2022-08-26T23:39:31.136Z,72.78
2022-08-26T23:42:01.839Z,72.77
2022-08-26T23:44:30.871Z,72.84
2022-08-26T23:46:59.546Z,72.70
2022-08-26T23:49:28.210Z,72.74
2022-08-26T23:52:14.959Z,72.74
2022-08-26T23:54:43.106Z,72.65
2022-08-26T23:57:11.388Z,72.70
2022-08-26T23:59:39.726Z,72.56
